Terminal Aerodrome Forecast
Issued by NWS

Home | Current Version | Previous Version | Text Only | Print | Product List | Glossary On
Versions: 1 2 3 4 5 6 7 8 9 10 11 12
000
FTUS43 KBIS 242325
TAFJMS
TAF
KJMS 242325Z 2500/2524 09010KT P6SM VCSH OVC045
     FM250600 03006KT 4SM -RA BR BKN015 OVC025
     FM251600 02007KT 6SM -RA BR BKN025 OVC050
     FM252000 33007KT P6SM VCSH OVC050=

USA.gov is the U.S. government's official web portal to all federal, state and local government web resources and services.